Hlavní strana
METAR-TAF:

METAR-TAF

Letiště :

Mezinárodní letiště Kansai

Kansai, Japonsko

zeměpisná šířka: 34-25N, zeměpisná délka: 135-15E, výška: 5 m

Aktuální stav počasí

Zpráva byla vytvořena před 47 minutami, v 01:00 UTC
Východní vítr 5 kt, proměnlivý mezi severovýchodním a jihovýchodním
Teplota 8°C
Vlhkost vzduchu 71%
Tlak 1031 hPa
Viditelnost 10 km a více
Skoro jasno ve výšce 3000 ft
Oblačno až skoro zataženo

METAR: RJBB 200100Z 08005KT 050V130 9999 FEW030 BKN/// 08/03 Q1031 NOSIG

Čas: 10:47 (01:47 UTC)

Předpověď počasí

Zpráva byla vytvořena před 2 hodinami a 42 minutami, v 23:05 UTC
Předpověď platná od 20 v 00 UTC do 21 v 06 UTC
Severní vítr 5 kt
Viditelnost 10 km a více
Skoro jasno ve výšce 3000 ft
Změna
od 20 v 04 UTC do 20 v 06 UTC
Západní vítr 5 kt
Změna
od 20 v 09 UTC do 20 v 11 UTC
Severoseverovýchodní vítr 14 kt
Změna
od 21 v 03 UTC do 21 v 06 UTC
Západoseverozápadní vítr 4 kt

TAF: RJBB 192305Z 2000/2106 01005KT 9999 FEW030 BECMG 2004/2006 28005KT BECMG 2009/2011 02014KT BECMG 2103/2106 30004KT

Stav a předpovědi počasí z více než 4 000 letišť (zprávy METAR a TAF).

Červené a žluté tečky na mapě představují dostupné meteorologické stanice.

Když kurzor umístíte na tečku, zobrazí se název stanice.

Pak kliknutím zobrazíte stav a předpověď počasí.

Chcete-li změnit mapu, kliknutím na zelené tlačítko se znaménkem +mapu přiblížíte, kliknutím na zelené tlačítko se znaménkem – mapu oddálíte a kliknutím na zelené šipky přejdete na sousední mapy.


METAR-TAF: